Time;durP1;ratioP1;P1;durP2;ratioP2;P2;SDS_P1;SDS_P2;PMS_P1;PMS_P2;Temp;Humidity;BMP_temperature;BMP_pressure;BME280_temperature;BME280_humidity;BME280_pressure;Samples;Min_cycle;Max_cycle;Signal;HPM_P1;HPM_P2
2023/06/09 00:01:01;;;;;;;13.18;5.63;;;;;;;;;;4997621;28;20061;-62
2023/06/09 00:03:31;;;;;;;14.18;5.88;;;;;;;;;;5013840;28;20060;-62
2023/06/09 00:06:02;;;;;;;16.45;5.93;;;;;;;;;;5030337;28;20050;-64
2023/06/09 00:08:32;;;;;;;13.98;5.53;;;;;;;;;;5030571;28;20054;-64
2023/06/09 00:11:02;;;;;;;18.67;6.35;;;;;;;;;;5033711;28;20056;-63
2023/06/09 00:13:32;;;;;;;18.70;6.65;;;;;;;;;;5072654;28;20484;-63
2023/06/09 00:16:04;;;;;;;13.48;5.88;;;;;;;;;;5053639;28;20056;-62
2023/06/09 00:18:36;;;;;;;17.88;6.25;;;;;;;;;;5072733;28;20045;-64
2023/06/09 00:21:07;;;;;;;18.65;5.35;;;;;;;;;;5072631;28;20048;-63
2023/06/09 00:23:37;;;;;;;11.88;6.20;;;;;;;;;;5072513;28;20063;-65
2023/06/09 00:26:07;;;;;;;15.82;5.47;;;;;;;;;;5072356;28;20051;-63
2023/06/09 00:28:38;;;;;;;13.95;5.40;;;;;;;;;;5049515;28;20053;-63
2023/06/09 00:31:08;;;;;;;15.60;5.45;;;;;;;;;;5049454;28;20064;-63
2023/06/09 00:33:38;;;;;;;9.65;4.85;;;;;;;;;;5049665;28;20041;-64
2023/06/09 00:36:09;;;;;;;13.55;5.10;;;;;;;;;;4949265;28;20046;-62
2023/06/09 00:38:41;;;;;;;18.45;5.22;;;;;;;;;;5029687;28;20049;-62
2023/06/09 00:41:11;;;;;;;15.98;5.13;;;;;;;;;;5013441;28;20053;-63
2023/06/09 00:43:50;;;;;;;11.52;4.95;;;;;;;;;;5029896;28;20057;-63
2023/06/09 00:46:20;;;;;;;12.75;4.70;;;;;;;;;;5029601;28;20072;-63
2023/06/09 00:48:51;;;;;;;13.43;4.80;;;;;;;;;;4996796;28;20505;-64
2023/06/09 00:51:22;;;;;;;11.80;5.00;;;;;;;;;;4954353;28;20067;-63
2023/06/09 00:53:53;;;;;;;14.82;5.20;;;;;;;;;;4919404;29;20067;-63
2023/06/09 00:56:23;;;;;;;13.85;5.47;;;;;;;;;;4949996;28;20061;-63
2023/06/09 00:58:53;;;;;;;15.00;6.03;;;;;;;;;;4951169;29;21050;-63
2023/06/09 01:01:24;;;;;;;14.38;5.30;;;;;;;;;;4919600;29;20500;-62
2023/06/09 01:03:55;;;;;;;13.38;5.53;;;;;;;;;;4951283;29;20066;-64
2023/06/09 01:06:57;;;;;;;15.55;5.03;;;;;;;;;;4931762;29;20052;-62
2023/06/09 01:09:34;;;;;;;14.10;5.88;;;;;;;;;;4931791;29;20436;-63
2023/06/09 01:12:08;;;;;;;13.40;5.60;;;;;;;;;;4932022;29;20390;-63
2023/06/09 01:14:47;;;;;;;14.05;6.03;;;;;;;;;;4931890;29;20059;-63
2023/06/09 01:17:19;;;;;;;14.20;5.78;;;;;;;;;;4931747;29;20132;-64
2023/06/09 01:19:55;;;;;;;15.55;5.18;;;;;;;;;;4899917;29;20539;-64
2023/06/09 01:22:47;;;;;;;15.98;5.22;;;;;;;;;;4944200;29;20068;-63
2023/06/09 01:25:37;;;;;;;13.82;5.38;;;;;;;;;;4881716;29;20509;-63
2023/06/09 01:28:16;;;;;;;13.95;5.40;;;;;;;;;;4901392;29;20056;-63
2023/06/09 01:30:48;;;;;;;15.48;6.00;;;;;;;;;;4935096;29;20074;-63
2023/06/09 01:33:22;;;;;;;14.10;5.75;;;;;;;;;;4937574;28;20061;-65
2023/06/09 01:35:54;;;;;;;14.80;5.78;;;;;;;;;;4953924;28;20415;-63
2023/06/09 01:38:25;;;;;;;17.17;5.30;;;;;;;;;;4953349;28;20054;-62
2023/06/09 01:40:55;;;;;;;12.82;5.72;;;;;;;;;;4950123;28;20066;-63
2023/06/09 01:43:27;;;;;;;20.38;6.28;;;;;;;;;;4938316;28;20059;-63
2023/06/09 01:45:57;;;;;;;11.82;5.13;;;;;;;;;;4950496;28;20051;-62
2023/06/09 01:48:59;;;;;;;13.40;5.78;;;;;;;;;;4950222;28;20058;-63
2023/06/09 01:51:52;;;;;;;10.65;5.30;;;;;;;;;;4912064;29;20056;-62
2023/06/09 01:54:37;;;;;;;13.25;5.85;;;;;;;;;;4927637;28;20615;-63
2023/06/09 01:57:49;;;;;;;15.02;6.00;;;;;;;;;;4912061;29;20056;-63
2023/06/09 02:00:25;;;;;;;12.38;5.65;;;;;;;;;;4916394;29;20068;-63
2023/06/09 02:02:58;;;;;;;11.07;5.35;;;;;;;;;;4893688;29;20518;-63
2023/06/09 02:05:32;;;;;;;15.40;5.32;;;;;;;;;;4877801;29;20060;-62
2023/06/09 02:08:04;;;;;;;10.65;4.97;;;;;;;;;;4913734;29;20166;-63
2023/06/09 02:10:35;;;;;;;14.02;5.45;;;;;;;;;;4922483;29;20060;-64
2023/06/09 02:13:16;;;;;;;13.55;5.43;;;;;;;;;;4922077;28;20478;-63
2023/06/09 02:15:48;;;;;;;20.13;5.97;;;;;;;;;;4887561;29;20056;-63
2023/06/09 02:18:22;;;;;;;20.23;6.00;;;;;;;;;;4915140;29;20579;-63
2023/06/09 02:20:53;;;;;;;14.95;6.40;;;;;;;;;;4953908;28;20055;-63
2023/06/09 02:23:24;;;;;;;16.73;5.38;;;;;;;;;;4919303;29;20063;-62
2023/06/09 02:25:54;;;;;;;17.35;6.00;;;;;;;;;;4961331;28;20054;-63
2023/06/09 02:28:24;;;;;;;20.17;5.15;;;;;;;;;;4966325;28;20063;-64
2023/06/09 02:30:54;;;;;;;11.77;5.30;;;;;;;;;;4953822;29;20051;-63
2023/06/09 02:33:27;;;;;;;13.70;5.65;;;;;;;;;;4934618;29;20056;-64
2023/06/09 02:35:58;;;;;;;11.10;5.65;;;;;;;;;;4925063;29;20456;-63
2023/06/09 02:38:31;;;;;;;18.80;7.15;;;;;;;;;;4934394;29;20077;-64
2023/06/09 02:41:01;;;;;;;13.68;5.97;;;;;;;;;;4915386;29;20055;-64
2023/06/09 02:43:31;;;;;;;17.42;5.90;;;;;;;;;;4915846;29;20056;-65
2023/06/09 02:46:01;;;;;;;13.48;6.22;;;;;;;;;;4915128;29;20098;-66
2023/06/09 02:48:31;;;;;;;13.88;5.65;;;;;;;;;;4899878;29;20055;-64
2023/06/09 02:51:04;;;;;;;13.10;6.20;;;;;;;;;;4912346;29;20052;-64
2023/06/09 02:53:34;;;;;;;12.38;5.70;;;;;;;;;;4930662;29;20070;-63
2023/06/09 02:56:05;;;;;;;12.70;6.22;;;;;;;;;;4895938;29;20052;-62
2023/06/09 02:58:43;;;;;;;14.88;6.38;;;;;;;;;;4896378;29;20052;-62
2023/06/09 03:01:17;;;;;;;13.35;5.53;;;;;;;;;;4885728;29;20064;-61
2023/06/09 03:03:49;;;;;;;14.80;6.13;;;;;;;;;;4888932;29;20049;-61
2023/06/09 03:06:20;;;;;;;16.50;6.15;;;;;;;;;;4896245;29;20056;-62
2023/06/09 03:08:51;;;;;;;11.35;5.82;;;;;;;;;;4877357;29;20065;-61
2023/06/09 03:11:21;;;;;;;11.07;5.00;;;;;;;;;;4899908;29;20067;-61
2023/06/09 03:13:51;;;;;;;9.25;5.00;;;;;;;;;;4899833;29;20056;-62
2023/06/09 03:16:22;;;;;;;11.82;5.32;;;;;;;;;;4914816;29;20055;-61
2023/06/09 03:18:54;;;;;;;11.15;5.03;;;;;;;;;;4909272;29;20051;-61
2023/06/09 03:21:25;;;;;;;11.93;5.53;;;;;;;;;;4918193;29;20048;-62
2023/06/09 03:23:56;;;;;;;11.68;5.75;;;;;;;;;;4918141;29;20442;-62
2023/06/09 03:26:27;;;;;;;17.33;6.07;;;;;;;;;;4952659;29;20059;-61
2023/06/09 03:28:57;;;;;;;12.05;6.30;;;;;;;;;;4894470;29;20060;-61
2023/06/09 03:31:28;;;;;;;14.32;5.85;;;;;;;;;;4911308;29;20053;-62
2023/06/09 03:33:58;;;;;;;12.52;5.80;;;;;;;;;;4895597;29;20525;-63
2023/06/09 03:36:29;;;;;;;15.55;6.25;;;;;;;;;;4895254;29;20052;-63
2023/06/09 03:38:59;;;;;;;16.23;5.60;;;;;;;;;;4914265;29;20071;-64
2023/06/09 03:41:29;;;;;;;17.85;5.80;;;;;;;;;;4895389;29;20095;-63
2023/06/09 03:44:00;;;;;;;12.27;5.13;;;;;;;;;;4880131;29;20053;-64
2023/06/09 03:46:32;;;;;;;15.98;5.75;;;;;;;;;;4867566;29;20057;-63
2023/06/09 03:49:03;;;;;;;17.38;5.93;;;;;;;;;;4895283;29;20087;-63
2023/06/09 03:51:33;;;;;;;11.50;5.40;;;;;;;;;;4894979;29;20060;-63
2023/06/09 03:54:04;;;;;;;18.02;5.75;;;;;;;;;;4839111;29;20051;-64
2023/06/09 03:56:34;;;;;;;14.20;4.82;;;;;;;;;;4846616;29;20053;-63
2023/06/09 03:59:06;;;;;;;12.88;5.65;;;;;;;;;;4857793;29;20056;-63
2023/06/09 04:01:36;;;;;;;11.50;4.90;;;;;;;;;;4857991;29;20046;-64
2023/06/09 04:04:06;;;;;;;13.30;5.20;;;;;;;;;;4876189;29;20053;-63
2023/06/09 04:06:38;;;;;;;14.35;5.45;;;;;;;;;;4845324;29;20048;-64
2023/06/09 04:09:08;;;;;;;12.63;5.35;;;;;;;;;;4876517;29;20105;-63
2023/06/09 04:11:39;;;;;;;15.75;5.60;;;;;;;;;;4876403;29;20431;-64
2023/06/09 04:14:10;;;;;;;13.20;5.30;;;;;;;;;;4876552;29;20065;-63
2023/06/09 04:16:41;;;;;;;12.50;5.28;;;;;;;;;;4866598;29;20057;-63
2023/06/09 04:19:12;;;;;;;14.52;5.55;;;;;;;;;;4847227;29;20427;-64
2023/06/09 04:21:43;;;;;;;12.85;5.13;;;;;;;;;;4857441;29;20052;-63
2023/06/09 04:24:16;;;;;;;15.10;5.45;;;;;;;;;;4851980;29;20064;-63
2023/06/09 04:26:49;;;;;;;11.52;5.22;;;;;;;;;;4857074;29;20053;-64
2023/06/09 04:29:22;;;;;;;12.32;5.15;;;;;;;;;;4857464;29;20530;-63
2023/06/09 04:31:58;;;;;;;16.60;6.25;;;;;;;;;;4846956;29;20061;-63
2023/06/09 04:34:39;;;;;;;19.50;5.55;;;;;;;;;;4838711;29;20549;-63
2023/06/09 04:37:13;;;;;;;14.90;5.68;;;;;;;;;;4888259;29;20053;-63
2023/06/09 04:39:45;;;;;;;15.20;6.20;;;;;;;;;;4865580;29;20061;-63
2023/06/09 04:42:22;;;;;;;21.75;6.65;;;;;;;;;;4883636;29;20080;-63
2023/06/09 04:44:53;;;;;;;15.70;6.22;;;;;;;;;;4848643;29;20062;-63
2023/06/09 04:47:26;;;;;;;13.52;5.68;;;;;;;;;;4838741;29;20046;-64
2023/06/09 04:49:57;;;;;;;15.57;5.20;;;;;;;;;;4857244;29;20061;-64
2023/06/09 04:52:27;;;;;;;13.05;5.15;;;;;;;;;;4841370;29;20057;-63
2023/06/09 04:54:57;;;;;;;12.13;4.90;;;;;;;;;;4830116;29;20058;-63
2023/06/09 04:57:31;;;;;;;13.75;5.18;;;;;;;;;;4838801;29;20057;-63
2023/06/09 05:00:16;;;;;;;12.65;4.82;;;;;;;;;;4811334;29;20055;-63
2023/06/09 05:02:51;;;;;;;9.50;4.97;;;;;;;;;;4838419;29;20065;-63
2023/06/09 05:05:21;;;;;;;;;;;;;;;;;;4854457;29;20058;-63
2023/06/09 05:07:51;;;;;;;13.95;5.25;;;;;;;;;;4872434;29;19930;-64
2023/06/09 05:10:23;;;;;;;11.65;4.40;;;;;;;;;;4856586;29;20049;-64
2023/06/09 05:12:53;;;;;;;9.48;4.60;;;;;;;;;;4824353;29;20050;-63
2023/06/09 05:15:24;;;;;;;11.75;5.43;;;;;;;;;;4820095;29;20416;-63
2023/06/09 05:17:55;;;;;;;11.60;5.18;;;;;;;;;;4825886;29;20065;-63
2023/06/09 05:20:26;;;;;;;7.53;3.95;;;;;;;;;;4820247;29;20054;-63
2023/06/09 05:22:56;;;;;;;10.43;4.18;;;;;;;;;;4844560;29;20638;-63
2023/06/09 05:25:27;;;;;;;12.13;4.30;;;;;;;;;;4841094;29;20058;-65
2023/06/09 05:27:57;;;;;;;12.20;4.95;;;;;;;;;;4868150;29;20072;-63
2023/06/09 05:30:28;;;;;;;8.88;4.47;;;;;;;;;;4875207;29;20546;-63
2023/06/09 05:32:59;;;;;;;11.85;4.38;;;;;;;;;;4856450;29;20423;-63
2023/06/09 05:35:31;;;;;;;9.77;4.45;;;;;;;;;;4833387;29;20055;-64
2023/06/09 05:38:01;;;;;;;12.13;5.03;;;;;;;;;;4819570;29;20065;-64
2023/06/09 05:40:32;;;;;;;12.02;5.18;;;;;;;;;;4786583;29;20063;-63
2023/06/09 05:43:04;;;;;;;;;;;;;;;;;;4783465;29;20548;-64
2023/06/09 05:45:35;;;;;;;11.13;4.28;;;;;;;;;;4783721;30;19948;-64
2023/06/09 05:48:05;;;;;;;12.52;5.05;;;;;;;;;;4774741;29;20099;-65
2023/06/09 05:50:37;;;;;;;11.70;4.60;;;;;;;;;;4807029;29;20063;-63
2023/06/09 05:53:07;;;;;;;12.90;6.03;;;;;;;;;;4792939;29;20058;-63
2023/06/09 05:55:38;;;;;;;11.15;5.18;;;;;;;;;;4835407;29;20061;-63
2023/06/09 05:58:09;;;;;;;10.98;5.05;;;;;;;;;;4838115;29;20430;-63
2023/06/09 06:00:39;;;;;;;13.93;5.45;;;;;;;;;;4856995;29;20057;-64
2023/06/09 06:03:10;;;;;;;13.30;5.22;;;;;;;;;;4894406;29;20060;-63
2023/06/09 06:05:41;;;;;;;13.05;5.93;;;;;;;;;;4912605;29;20492;-64
2023/06/09 06:08:11;;;;;;;12.95;5.68;;;;;;;;;;4942208;28;20478;-63
2023/06/09 06:10:41;;;;;;;13.85;6.65;;;;;;;;;;4958323;28;20070;-63
2023/06/09 06:13:12;;;;;;;14.75;5.72;;;;;;;;;;5018527;28;20053;-63
2023/06/09 06:15:43;;;;;;;11.75;5.32;;;;;;;;;;5049935;28;20071;-64
2023/06/09 06:18:14;;;;;;;11.90;4.97;;;;;;;;;;5071168;28;20515;-63
2023/06/09 06:20:44;;;;;;;13.27;4.78;;;;;;;;;;5071069;28;20047;-65
2023/06/09 06:23:14;;;;;;;12.80;5.40;;;;;;;;;;5024615;28;20061;-63
2023/06/09 06:25:44;;;;;;;9.80;4.68;;;;;;;;;;4992336;28;20077;-63
2023/06/09 06:28:15;;;;;;;11.90;4.68;;;;;;;;;;5008896;28;20061;-63
2023/06/09 06:30:45;;;;;;;11.65;5.10;;;;;;;;;;5008975;28;20046;-64
2023/06/09 06:33:15;;;;;;;13.45;4.90;;;;;;;;;;5008585;28;20406;-63
2023/06/09 06:35:45;;;;;;;12.48;5.43;;;;;;;;;;5008707;28;20058;-63
2023/06/09 06:38:15;;;;;;;12.40;4.97;;;;;;;;;;5008184;28;20056;-63
2023/06/09 06:40:47;;;;;;;7.35;4.18;;;;;;;;;;4959664;28;20841;-63
2023/06/09 06:43:17;;;;;;;11.20;4.55;;;;;;;;;;5008553;28;20061;-64
2023/06/09 06:46:11;;;;;;;8.90;4.25;;;;;;;;;;4937103;29;20063;-63
2023/06/09 06:48:41;;;;;;;11.13;4.63;;;;;;;;;;4949830;28;20055;-64
2023/06/09 06:51:12;;;;;;;11.30;4.20;;;;;;;;;;4918557;29;20058;-63
2023/06/09 06:53:43;;;;;;;10.02;4.30;;;;;;;;;;4951124;28;20055;-63
2023/06/09 06:56:13;;;;;;;9.43;4.13;;;;;;;;;;4937950;29;20047;-63
2023/06/09 06:58:43;;;;;;;8.15;4.07;;;;;;;;;;4953725;29;20043;-63
2023/06/09 07:01:15;;;;;;;10.77;4.78;;;;;;;;;;4978296;28;20054;-63
2023/06/09 07:03:45;;;;;;;8.23;3.90;;;;;;;;;;4992546;28;20050;-63
2023/06/09 07:06:17;;;;;;;10.52;4.32;;;;;;;;;;4944987;28;20061;-64
2023/06/09 07:08:48;;;;;;;9.77;3.78;;;;;;;;;;4960622;28;20054;-64
2023/06/09 07:11:18;;;;;;;11.07;4.10;;;;;;;;;;4992484;28;20050;-63
2023/06/09 07:13:51;;;;;;;11.23;4.18;;;;;;;;;;4975688;28;20059;-63
2023/06/09 07:16:21;;;;;;;;;;;;;;;;;;4971559;28;20046;-63
2023/06/09 07:18:51;;;;;;;12.00;4.45;;;;;;;;;;5038278;28;20285;-66
2023/06/09 07:21:21;;;;;;;13.20;4.40;;;;;;;;;;5074142;28;20044;-63
2023/06/09 07:23:52;;;;;;;11.70;4.45;;;;;;;;;;5038540;28;20353;-63
2023/06/09 07:26:22;;;;;;;11.88;4.63;;;;;;;;;;5073910;28;20052;-65
2023/06/09 07:28:52;;;;;;;12.65;4.40;;;;;;;;;;5054803;28;20052;-63
2023/06/09 07:31:22;;;;;;;8.82;4.15;;;;;;;;;;4979604;28;20053;-63
2023/06/09 07:33:52;;;;;;;14.50;5.72;;;;;;;;;;5011647;28;20415;-63
2023/06/09 07:36:24;;;;;;;9.57;4.55;;;;;;;;;;4995522;28;20058;-63
2023/06/09 07:38:54;;;;;;;11.02;4.93;;;;;;;;;;4979467;28;20133;-63
2023/06/09 07:41:28;;;;;;;10.20;4.75;;;;;;;;;;5011448;28;20542;-63
2023/06/09 07:43:59;;;;;;;9.55;4.82;;;;;;;;;;5011128;28;20081;-63
2023/06/09 07:46:31;;;;;;;12.73;5.05;;;;;;;;;;5030750;28;20057;-63
2023/06/09 07:49:02;;;;;;;9.75;4.55;;;;;;;;;;5030862;28;20497;-63
2023/06/09 07:51:36;;;;;;;10.40;4.30;;;;;;;;;;5031201;28;20060;-62
2023/06/09 07:54:08;;;;;;;14.48;5.43;;;;;;;;;;4982820;28;20053;-63
2023/06/09 07:56:40;;;;;;;10.63;4.30;;;;;;;;;;5030979;28;20046;-63
2023/06/09 07:59:10;;;;;;;9.80;4.65;;;;;;;;;;4981839;28;20061;-62
2023/06/09 08:01:41;;;;;;;12.25;5.22;;;;;;;;;;5030712;28;20060;-63
2023/06/09 08:04:11;;;;;;;10.30;4.63;;;;;;;;;;5030592;28;20057;-63
2023/06/09 08:06:42;;;;;;;13.75;5.22;;;;;;;;;;4997388;28;20841;-63
2023/06/09 08:09:12;;;;;;;11.82;4.85;;;;;;;;;;5037491;28;20056;-63
2023/06/09 08:11:42;;;;;;;10.82;4.90;;;;;;;;;;5053720;28;20496;-62
2023/06/09 08:14:13;;;;;;;12.18;5.40;;;;;;;;;;5070305;28;20052;-62
2023/06/09 08:16:43;;;;;;;11.20;4.55;;;;;;;;;;5020189;28;20045;-65
2023/06/09 08:19:13;;;;;;;11.73;4.90;;;;;;;;;;5037833;28;20127;-63
2023/06/09 08:21:44;;;;;;;11.70;4.88;;;;;;;;;;5070376;28;20048;-63
2023/06/09 08:24:14;;;;;;;10.43;4.80;;;;;;;;;;5071422;28;20508;-63
2023/06/09 08:26:48;;;;;;;13.40;4.97;;;;;;;;;;5053644;28;20056;-63
2023/06/09 08:29:18;;;;;;;12.27;5.13;;;;;;;;;;5053954;28;20396;-63
2023/06/09 08:31:49;;;;;;;11.45;5.07;;;;;;;;;;4971771;28;20052;-64
2023/06/09 08:34:19;;;;;;;13.95;5.50;;;;;;;;;;5072143;28;20036;-64
2023/06/09 08:36:49;;;;;;;11.77;5.30;;;;;;;;;;5037873;28;20052;-63
2023/06/09 08:39:20;;;;;;;11.65;5.28;;;;;;;;;;5071928;28;20053;-64
2023/06/09 08:41:52;;;;;;;10.57;4.82;;;;;;;;;;4996716;28;20053;-63
2023/06/09 08:44:24;;;;;;;;;;;;;;;;;;5030202;28;20065;-64
2023/06/09 08:46:59;;;;;;;10.73;4.75;;;;;;;;;;4997695;28;19921;-63
2023/06/09 08:49:29;;;;;;;12.18;5.80;;;;;;;;;;5029804;28;20393;-62
2023/06/09 08:52:03;;;;;;;11.82;5.32;;;;;;;;;;4965643;28;20780;-63
2023/06/09 08:54:33;;;;;;;10.32;5.50;;;;;;;;;;5029388;28;20053;-64
2023/06/09 08:57:05;;;;;;;11.52;4.72;;;;;;;;;;5029835;28;20060;-63
2023/06/09 08:59:37;;;;;;;11.23;4.70;;;;;;;;;;5012870;28;20049;-64
2023/06/09 09:02:10;;;;;;;14.15;5.00;;;;;;;;;;5029604;28;20041;-64
2023/06/09 09:04:40;;;;;;;;;;;;;;;;;;4998231;28;20064;-64
2023/06/09 09:07:11;;;;;;;11.63;4.90;;;;;;;;;;5029534;28;19921;-64
2023/06/09 09:09:41;;;;;;;12.90;5.40;;;;;;;;;;5029414;28;20056;-63
2023/06/09 09:12:13;;;;;;;11.50;5.07;;;;;;;;;;4980582;28;20588;-64
2023/06/09 09:14:44;;;;;;;10.82;4.53;;;;;;;;;;5029416;28;20053;-63
2023/06/09 09:17:15;;;;;;;10.63;4.70;;;;;;;;;;5011850;28;20049;-63
2023/06/09 09:19:51;;;;;;;14.13;5.43;;;;;;;;;;5038297;28;20064;-63
2023/06/09 09:22:21;;;;;;;12.18;5.10;;;;;;;;;;5052828;28;20057;-63
2023/06/09 09:24:52;;;;;;;11.02;5.35;;;;;;;;;;5036132;28;20044;-64
2023/06/09 09:27:27;;;;;;;9.38;4.80;;;;;;;;;;5071410;28;20400;-64
2023/06/09 09:29:57;;;;;;;13.55;5.18;;;;;;;;;;5071334;28;20412;-63
2023/06/09 09:32:27;;;;;;;10.90;5.03;;;;;;;;;;5019169;28;20504;-63
2023/06/09 09:34:59;;;;;;;10.95;4.65;;;;;;;;;;5071426;28;20048;-63
2023/06/09 09:37:32;;;;;;;14.05;5.38;;;;;;;;;;5071113;28;20041;-63
2023/06/09 09:40:04;;;;;;;12.73;4.85;;;;;;;;;;5051942;28;20123;-64
2023/06/09 09:42:36;;;;;;;10.75;5.00;;;;;;;;;;5020894;28;20059;-64
2023/06/09 09:45:08;;;;;;;11.65;5.15;;;;;;;;;;5028503;28;20053;-63
2023/06/09 09:47:38;;;;;;;10.98;4.68;;;;;;;;;;4995688;28;20057;-64
2023/06/09 09:50:10;;;;;;;9.90;4.43;;;;;;;;;;5012077;28;20062;-63
2023/06/09 09:52:42;;;;;;;12.80;4.30;;;;;;;;;;5028597;28;20089;-65
2023/06/09 09:55:13;;;;;;;10.70;4.75;;;;;;;;;;5028486;28;20078;-64
2023/06/09 09:57:44;;;;;;;16.45;5.47;;;;;;;;;;4996391;28;20050;-63
2023/06/09 10:00:15;;;;;;;17.92;5.57;;;;;;;;;;4979736;28;20057;-63
2023/06/09 10:02:51;;;;;;;13.43;5.68;;;;;;;;;;5012613;28;20139;-63
2023/06/09 10:05:23;;;;;;;13.88;5.30;;;;;;;;;;5012323;28;20053;-63
2023/06/09 10:07:56;;;;;;;14.45;5.55;;;;;;;;;;5012468;28;20049;-63
2023/06/09 10:10:27;;;;;;;17.05;5.90;;;;;;;;;;5028256;28;20058;-63
2023/06/09 10:12:59;;;;;;;17.98;5.63;;;;;;;;;;5028015;28;20133;-64
2023/06/09 10:15:32;;;;;;;20.58;5.68;;;;;;;;;;5028399;28;20527;-62
2023/06/09 10:18:04;;;;;;;16.98;5.95;;;;;;;;;;4995397;28;20054;-62
2023/06/09 10:20:35;;;;;;;9.85;4.40;;;;;;;;;;5028284;28;20053;-62
2023/06/09 10:23:05;;;;;;;10.93;4.72;;;;;;;;;;4996199;28;20049;-63
2023/06/09 10:25:37;;;;;;;12.50;5.03;;;;;;;;;;5011763;28;20057;-63
2023/06/09 10:28:12;;;;;;;12.32;4.32;;;;;;;;;;5028231;28;20528;-62
2023/06/09 10:30:45;;;;;;;10.77;4.82;;;;;;;;;;5032305;28;20782;-62
2023/06/09 10:33:17;;;;;;;19.23;4.85;;;;;;;;;;5028681;28;20554;-63
2023/06/09 10:35:49;;;;;;;12.13;5.22;;;;;;;;;;5019769;28;20065;-63
2023/06/09 10:38:30;;;;;;;11.27;4.75;;;;;;;;;;5035336;28;20157;-62
2023/06/09 10:41:11;;;;;;;9.40;4.50;;;;;;;;;;5052028;28;20064;-64
2023/06/09 10:43:50;;;;;;;13.95;4.57;;;;;;;;;;5051980;28;20067;-63
2023/06/09 10:46:50;;;;;;;9.85;4.43;;;;;;;;;;5003035;28;20049;-63
2023/06/09 10:49:40;;;;;;;;;;;;;;;;;;4913985;28;20056;-63
2023/06/09 10:52:35;;;;;;;12.32;5.15;;;;;;;;;;4960097;28;19928;-64
2023/06/09 10:55:12;;;;;;;17.80;5.00;;;;;;;;;;4992021;28;20063;-64
2023/06/09 10:57:43;;;;;;;20.58;5.80;;;;;;;;;;4975672;28;20038;-63
2023/06/09 11:00:16;;;;;;;23.60;5.85;;;;;;;;;;4992256;28;20450;-63
2023/06/09 11:03:11;;;;;;;17.45;6.15;;;;;;;;;;4992322;28;20050;-63
2023/06/09 11:05:43;;;;;;;15.05;5.65;;;;;;;;;;4985000;28;20054;-62
2023/06/09 11:08:13;;;;;;;17.15;5.97;;;;;;;;;;4978719;28;20617;-63
2023/06/09 11:10:45;;;;;;;12.48;5.25;;;;;;;;;;4995526;28;20148;-62
2023/06/09 11:13:39;;;;;;;15.13;5.93;;;;;;;;;;5011778;28;20062;-61
2023/06/09 11:16:10;;;;;;;17.73;6.35;;;;;;;;;;4978740;28;20065;-62
2023/06/09 11:18:40;;;;;;;18.60;7.10;;;;;;;;;;4991819;28;20503;-62
2023/06/09 11:21:14;;;;;;;20.38;7.20;;;;;;;;;;4975974;28;20058;-62
2023/06/09 11:24:02;;;;;;;20.63;6.88;;;;;;;;;;4960731;28;20557;-62
2023/06/09 11:26:34;;;;;;;22.73;8.18;;;;;;;;;;5003884;28;20045;-64
2023/06/09 11:29:19;;;;;;;20.63;7.75;;;;;;;;;;5011437;28;20527;-63
2023/06/09 11:31:51;;;;;;;18.60;7.35;;;;;;;;;;4967406;28;20061;-62
2023/06/09 11:34:58;;;;;;;17.35;8.10;;;;;;;;;;5030961;28;20654;-62
2023/06/09 11:37:28;;;;;;;22.92;9.57;;;;;;;;;;4998721;28;20057;-64
2023/06/09 11:39:59;;;;;;;21.27;9.68;;;;;;;;;;5030124;28;20427;-62
2023/06/09 11:42:32;;;;;;;20.27;9.80;;;;;;;;;;5030889;28;20074;-63
2023/06/09 11:45:07;;;;;;;21.73;9.50;;;;;;;;;;5031171;28;20057;-63
2023/06/09 11:47:39;;;;;;;19.40;9.15;;;;;;;;;;4981825;28;20057;-62
2023/06/09 11:50:15;;;;;;;18.33;8.60;;;;;;;;;;5030857;28;20065;-63
2023/06/09 11:52:45;;;;;;;24.80;9.38;;;;;;;;;;5014039;28;20413;-62
2023/06/09 11:55:16;;;;;;;20.58;9.75;;;;;;;;;;5033742;28;20208;-64
2023/06/09 11:57:47;;;;;;;21.65;9.18;;;;;;;;;;5072761;28;20043;-63
2023/06/09 12:00:18;;;;;;;23.08;9.38;;;;;;;;;;5073032;28;20044;-63
2023/06/09 12:02:53;;;;;;;24.05;9.50;;;;;;;;;;5072763;28;20056;-62
2023/06/09 12:05:26;;;;;;;23.45;10.18;;;;;;;;;;5037184;28;20052;-62
2023/06/09 12:07:57;;;;;;;21.85;10.23;;;;;;;;;;5072756;28;20044;-63
2023/06/09 12:10:27;;;;;;;25.00;9.55;;;;;;;;;;5072899;28;20404;-62
2023/06/09 12:12:58;;;;;;;20.00;9.68;;;;;;;;;;5053801;28;20063;-63
2023/06/09 12:15:30;;;;;;;20.92;9.35;;;;;;;;;;5072637;28;20056;-63
2023/06/09 12:18:01;;;;;;;25.45;9.77;;;;;;;;;;5072404;28;20045;-63
2023/06/09 12:20:35;;;;;;;20.67;9.40;;;;;;;;;;5072821;28;20049;-64
2023/06/09 12:23:06;;;;;;;;;;;;;;;;;;5037493;28;20464;-64
2023/06/09 12:25:38;;;;;;;18.13;11.65;;;;;;;;;;5072683;28;19920;-65
2023/06/09 12:28:29;;;;;;;18.00;9.98;;;;;;;;;;5072426;28;20044;-63
2023/06/09 12:31:10;;;;;;;18.80;9.68;;;;;;;;;;5053461;28;20059;-63
2023/06/09 12:33:49;;;;;;;17.15;8.93;;;;;;;;;;5072460;28;20044;-63
2023/06/09 12:36:19;;;;;;;16.25;8.23;;;;;;;;;;5072285;28;20056;-62
2023/06/09 12:38:49;;;;;;;22.00;10.75;;;;;;;;;;5036137;28;20059;-63
2023/06/09 12:41:20;;;;;;;16.98;9.43;;;;;;;;;;5072281;28;20058;-63
2023/06/09 12:43:59;;;;;;;16.73;8.05;;;;;;;;;;5071982;28;20044;-64
2023/06/09 12:46:35;;;;;;;17.08;8.88;;;;;;;;;;5020139;28;20048;-63
2023/06/09 12:49:06;;;;;;;25.95;8.90;;;;;;;;;;5071820;28;20041;-63
2023/06/09 12:51:40;;;;;;;22.05;8.70;;;;;;;;;;5071828;28;20044;-65
2023/06/09 12:54:13;;;;;;;21.85;10.10;;;;;;;;;;5027982;28;20825;-65
2023/06/09 12:56:43;;;;;;;21.40;10.07;;;;;;;;;;5068509;28;20048;-63
2023/06/09 12:59:13;;;;;;;20.10;10.57;;;;;;;;;;5071773;28;20492;-63
2023/06/09 13:01:47;;;;;;;29.58;11.60;;;;;;;;;;5071524;28;20520;-64
2023/06/09 13:04:18;;;;;;;23.73;11.40;;;;;;;;;;5020814;28;20056;-63
2023/06/09 13:06:49;;;;;;;23.90;11.80;;;;;;;;;;5003772;28;20060;-63
2023/06/09 13:09:19;;;;;;;20.92;10.82;;;;;;;;;;5071671;28;20052;-63
2023/06/09 13:11:50;;;;;;;28.90;11.65;;;;;;;;;;5071201;28;20055;-64
2023/06/09 13:14:21;;;;;;;19.73;10.68;;;;;;;;;;4986766;28;20048;-63
2023/06/09 13:16:52;;;;;;;22.08;10.90;;;;;;;;;;5020576;28;20405;-64
2023/06/09 13:19:22;;;;;;;24.42;10.15;;;;;;;;;;5009126;28;20061;-63
2023/06/09 13:21:52;;;;;;;17.13;9.32;;;;;;;;;;5009864;28;20094;-64
2023/06/09 13:24:22;;;;;;;19.00;8.90;;;;;;;;;;4992767;28;20061;-63
2023/06/09 13:26:53;;;;;;;17.60;6.20;;;;;;;;;;4960775;28;20054;-63
2023/06/09 13:29:23;;;;;;;11.55;2.97;;;;;;;;;;5009134;28;20061;-63
2023/06/09 13:31:53;;;;;;;9.98;2.25;;;;;;;;;;4992609;28;20537;-64
2023/06/09 13:34:23;;;;;;;5.43;2.55;;;;;;;;;;4992713;28;20061;-64
2023/06/09 13:36:58;;;;;;;5.80;1.70;;;;;;;;;;4953715;28;20055;-63
2023/06/09 13:39:28;;;;;;;4.03;1.42;;;;;;;;;;4915492;29;20063;-65
2023/06/09 13:41:58;;;;;;;5.25;1.90;;;;;;;;;;4931781;29;20066;-64
2023/06/09 13:44:29;;;;;;;5.25;1.67;;;;;;;;;;4931354;29;20428;-64
2023/06/09 13:46:59;;;;;;;5.03;1.77;;;;;;;;;;4900758;29;20444;-64
2023/06/09 13:49:29;;;;;;;3.50;1.48;;;;;;;;;;4931572;29;20055;-64
2023/06/09 13:52:00;;;;;;;4.50;2.88;;;;;;;;;;4915849;29;20060;-63
2023/06/09 13:54:33;;;;;;;4.63;1.10;;;;;;;;;;4916319;29;20174;-63
2023/06/09 13:57:05;;;;;;;4.95;1.50;;;;;;;;;;4961691;28;20054;-64
2023/06/09 13:59:39;;;;;;;4.75;1.38;;;;;;;;;;4957460;28;20062;-64
2023/06/09 14:02:09;;;;;;;3.70;1.60;;;;;;;;;;4989681;28;20191;-64
2023/06/09 14:04:41;;;;;;;2.55;1.35;;;;;;;;;;4988537;28;20070;-66
2023/06/09 14:07:12;;;;;;;3.00;1.20;;;;;;;;;;4989291;28;20058;-64
2023/06/09 14:09:44;;;;;;;3.15;1.20;;;;;;;;;;4989088;28;20061;-64
2023/06/09 14:12:14;;;;;;;5.60;1.40;;;;;;;;;;4989204;28;20410;-64
2023/06/09 14:14:44;;;;;;;5.72;1.42;;;;;;;;;;5000955;28;20100;-65
2023/06/09 14:17:14;;;;;;;3.28;1.13;;;;;;;;;;5005793;28;20053;-64
2023/06/09 14:19:44;;;;;;;6.97;1.23;;;;;;;;;;5050599;28;20052;-64
2023/06/09 14:22:15;;;;;;;3.88;1.05;;;;;;;;;;5015815;28;20412;-64
2023/06/09 14:24:46;;;;;;;3.70;1.42;;;;;;;;;;5050603;28;20052;-64
2023/06/09 14:27:16;;;;;;;3.17;1.42;;;;;;;;;;5048654;28;20404;-66
2023/06/09 14:29:46;;;;;;;3.50;1.05;;;;;;;;;;5050584;28;20045;-64
2023/06/09 14:32:20;;;;;;;5.13;1.08;;;;;;;;;;5050606;28;20045;-65
2023/06/09 14:34:50;;;;;;;3.83;1.45;;;;;;;;;;5047979;28;20595;-65
2023/06/09 14:37:20;;;;;;;5.05;1.30;;;;;;;;;;5015560;28;20424;-65
2023/06/09 14:39:51;;;;;;;5.57;1.10;;;;;;;;;;5037086;28;20053;-64
2023/06/09 14:42:21;;;;;;;4.43;1.20;;;;;;;;;;5066112;28;20048;-66
2023/06/09 14:44:51;;;;;;;4.90;1.30;;;;;;;;;;5069460;28;20045;-67
2023/06/09 14:47:21;;;;;;;4.07;1.30;;;;;;;;;;5060039;28;20052;-66
2023/06/09 14:49:52;;;;;;;3.80;1.20;;;;;;;;;;5067436;28;20056;-66
2023/06/09 14:52:22;;;;;;;5.38;1.48;;;;;;;;;;5067521;28;20527;-65
2023/06/09 14:54:52;;;;;;;7.32;1.35;;;;;;;;;;5067451;28;20079;-65
2023/06/09 14:57:22;;;;;;;2.60;0.95;;;;;;;;;;5067666;28;20412;-67
2023/06/09 14:59:53;;;;;;;2.33;1.13;;;;;;;;;;5067221;28;20409;-65
2023/06/09 15:02:24;;;;;;;2.83;1.30;;;;;;;;;;5001662;28;20067;-64
2023/06/09 15:04:54;;;;;;;5.07;1.02;;;;;;;;;;5067414;28;20071;-65